sensor_id;sensor_type;location;lat;lon;timestamp;noise_LAeq;noise_LA_min;noise_LA_max;noise_LA01;noise_LA95
67306;Laerm;57661;51.436;5.978;2024-01-15T00:00:06;29.12;27.50;36.75;;
67306;Laerm;57661;51.436;5.978;2024-01-15T00:00:17;28.42;27.45;33.22;;
67306;Laerm;57661;51.436;5.978;2024-01-15T00:00:27;28.31;27.25;33.69;;
67306;Laerm;57661;51.436;5.978;2024-01-15T00:00:38;28.27;27.38;29.25;;
67306;Laerm;57661;51.436;5.978;2024-01-15T00:00:48;28.27;27.44;29.05;;
67306;Laerm;57661;51.436;5.978;2024-01-15T00:00:59;28.25;27.43;29.06;;
67306;Laerm;57661;51.436;5.978;2024-01-15T00:01:09;28.39;27.29;36.49;;
67306;Laerm;57661;51.436;5.978;2024-01-15T00:01:19;28.29;27.29;29.21;;
67306;Laerm;57661;51.436;5.978;2024-01-15T00:01:29;28.25;27.46;29.12;;
67306;Laerm;57661;51.436;5.978;2024-01-15T00:01:43;34.85;27.20;56.17;;
67306;Laerm;57661;51.436;5.978;2024-01-15T00:01:54;28.28;27.02;29.32;;
67306;Laerm;57661;51.436;5.978;2024-01-15T00:02:04;28.26;27.43;29.10;;
67306;Laerm;57661;51.436;5.978;2024-01-15T00:02:15;28.30;27.17;29.27;;
67306;Laerm;57661;51.436;5.978;2024-01-15T00:02:26;28.36;27.15;35.41;;
67306;Laerm;57661;51.436;5.978;2024-01-15T00:02:36;28.51;27.25;37.58;;
67306;Laerm;57661;51.436;5.978;2024-01-15T00:02:46;28.25;27.30;29.06;;
67306;Laerm;57661;51.436;5.978;2024-01-15T00:02:56;28.23;27.30;29.11;;
67306;Laerm;57661;51.436;5.978;2024-01-15T00:03:07;28.27;27.24;29.18;;
67306;Laerm;57661;51.436;5.978;2024-01-15T00:03:17;28.25;27.26;29.07;;
67306;Laerm;57661;51.436;5.978;2024-01-15T00:03:27;28.25;27.41;29.27;;
67306;Laerm;57661;51.436;5.978;2024-01-15T00:03:38;28.28;27.16;30.28;;
67306;Laerm;57661;51.436;5.978;2024-01-15T00:03:48;28.47;27.30;37.22;;
67306;Laerm;57661;51.436;5.978;2024-01-15T00:03:59;28.29;27.32;29.21;;
67306;Laerm;57661;51.436;5.978;2024-01-15T00:04:09;28.29;27.33;29.17;;
67306;Laerm;57661;51.436;5.978;2024-01-15T00:04:19;28.26;27.50;29.15;;
67306;Laerm;57661;51.436;5.978;2024-01-15T00:04:29;28.27;27.33;29.23;;
67306;Laerm;57661;51.436;5.978;2024-01-15T00:04:40;28.30;27.23;29.19;;
67306;Laerm;57661;51.436;5.978;2024-01-15T00:04:50;28.28;26.93;29.09;;
67306;Laerm;57661;51.436;5.978;2024-01-15T00:05:00;28.27;27.33;29.21;;
67306;Laerm;57661;51.436;5.978;2024-01-15T00:05:11;28.26;27.07;29.13;;
67306;Laerm;57661;51.436;5.978;2024-01-15T00:05:21;28.64;27.27;40.41;;
67306;Laerm;57661;51.436;5.978;2024-01-15T00:05:31;28.29;27.24;29.07;;
67306;Laerm;57661;51.436;5.978;2024-01-15T00:05:41;28.23;27.32;29.01;;
67306;Laerm;57661;51.436;5.978;2024-01-15T00:05:52;28.26;27.33;29.15;;
67306;Laerm;57661;51.436;5.978;2024-01-15T00:06:02;28.22;27.09;29.39;;
67306;Laerm;57661;51.436;5.978;2024-01-15T00:06:12;28.27;27.21;29.25;;
67306;Laerm;57661;51.436;5.978;2024-01-15T00:06:22;28.42;27.31;36.84;;
67306;Laerm;57661;51.436;5.978;2024-01-15T00:06:33;28.30;27.25;29.12;;
67306;Laerm;57661;51.436;5.978;2024-01-15T00:06:43;28.27;27.35;29.46;;
67306;Laerm;57661;51.436;5.978;2024-01-15T00:06:53;28.29;27.44;29.27;;
67306;Laerm;57661;51.436;5.978;2024-01-15T00:07:04;28.29;27.23;29.36;;
67306;Laerm;57661;51.436;5.978;2024-01-15T00:07:14;28.27;27.27;30.28;;
67306;Laerm;57661;51.436;5.978;2024-01-15T00:07:24;28.27;27.24;29.16;;
67306;Laerm;57661;51.436;5.978;2024-01-15T00:07:35;28.26;27.36;29.28;;
67306;Laerm;57661;51.436;5.978;2024-01-15T00:07:45;28.67;27.44;37.57;;
67306;Laerm;57661;51.436;5.978;2024-01-15T00:07:55;28.25;26.94;29.22;;
67306;Laerm;57661;51.436;5.978;2024-01-15T00:08:06;28.26;27.25;29.35;;
67306;Laerm;57661;51.436;5.978;2024-01-15T00:08:16;28.25;27.43;29.22;;
67306;Laerm;57661;51.436;5.978;2024-01-15T00:08:26;28.26;27.36;29.14;;
67306;Laerm;57661;51.436;5.978;2024-01-15T00:08:36;28.29;27.18;29.20;;
67306;Laerm;57661;51.436;5.978;2024-01-15T00:08:46;28.28;27.41;29.32;;
67306;Laerm;57661;51.436;5.978;2024-01-15T00:08:56;28.44;27.33;36.61;;
67306;Laerm;57661;51.436;5.978;2024-01-15T00:09:08;28.25;27.04;29.12;;
67306;Laerm;57661;51.436;5.978;2024-01-15T00:09:18;28.48;27.13;35.62;;
67306;Laerm;57661;51.436;5.978;2024-01-15T00:09:29;28.27;27.36;29.92;;
67306;Laerm;57661;51.436;5.978;2024-01-15T00:09:39;29.75;26.92;46.12;;
67306;Laerm;57661;51.436;5.978;2024-01-15T00:09:50;28.27;27.38;29.17;;
67306;Laerm;57661;51.436;5.978;2024-01-15T00:10:00;28.33;27.45;29.24;;
67306;Laerm;57661;51.436;5.978;2024-01-15T00:10:10;28.28;27.33;29.08;;
67306;Laerm;57661;51.436;5.978;2024-01-15T00:10:20;28.32;27.32;29.10;;
67306;Laerm;57661;51.436;5.978;2024-01-15T00:10:31;28.65;27.51;39.28;;
67306;Laerm;57661;51.436;5.978;2024-01-15T00:10:41;28.29;27.12;29.39;;
67306;Laerm;57661;51.436;5.978;2024-01-15T00:10:51;28.26;27.33;29.21;;
67306;Laerm;57661;51.436;5.978;2024-01-15T00:11:01;28.31;27.44;29.19;;
67306;Laerm;57661;51.436;5.978;2024-01-15T00:11:12;28.26;27.22;29.20;;
67306;Laerm;57661;51.436;5.978;2024-01-15T00:11:22;28.29;27.32;29.39;;
67306;Laerm;57661;51.436;5.978;2024-01-15T00:11:32;28.54;27.22;38.12;;
67306;Laerm;57661;51.436;5.978;2024-01-15T00:11:43;28.30;27.39;29.74;;
67306;Laerm;57661;51.436;5.978;2024-01-15T00:11:53;28.31;27.45;29.27;;
67306;Laerm;57661;51.436;5.978;2024-01-15T00:12:03;28.25;27.18;29.15;;
67306;Laerm;57661;51.436;5.978;2024-01-15T00:12:20;28.30;27.25;29.07;;
67306;Laerm;57661;51.436;5.978;2024-01-15T00:12:30;28.29;27.31;29.10;;
67306;Laerm;57661;51.436;5.978;2024-01-15T00:12:40;28.23;27.11;29.15;;
67306;Laerm;57661;51.436;5.978;2024-01-15T00:12:50;28.26;27.13;28.99;;
67306;Laerm;57661;51.436;5.978;2024-01-15T00:13:01;28.57;27.29;38.76;;
67306;Laerm;57661;51.436;5.978;2024-01-15T00:13:11;28.26;27.20;29.15;;
67306;Laerm;57661;51.436;5.978;2024-01-15T00:13:21;28.25;27.33;29.59;;
67306;Laerm;57661;51.436;5.978;2024-01-15T00:13:32;28.25;27.44;29.17;;
67306;Laerm;57661;51.436;5.978;2024-01-15T00:13:42;28.28;27.35;29.13;;
67306;Laerm;57661;51.436;5.978;2024-01-15T00:13:52;28.27;27.43;29.64;;
67306;Laerm;57661;51.436;5.978;2024-01-15T00:14:03;28.45;27.02;36.27;;
67306;Laerm;57661;51.436;5.978;2024-01-15T00:14:13;28.28;27.46;29.14;;
67306;Laerm;57661;51.436;5.978;2024-01-15T00:14:24;28.29;27.14;29.12;;
67306;Laerm;57661;51.436;5.978;2024-01-15T00:14:34;28.27;27.23;29.40;;
67306;Laerm;57661;51.436;5.978;2024-01-15T00:14:45;28.25;27.21;29.23;;
67306;Laerm;57661;51.436;5.978;2024-01-15T00:14:55;28.26;27.28;29.10;;
67306;Laerm;57661;51.436;5.978;2024-01-15T00:15:05;28.24;27.37;29.06;;
67306;Laerm;57661;51.436;5.978;2024-01-15T00:15:15;28.26;27.20;28.96;;
67306;Laerm;57661;51.436;5.978;2024-01-15T00:15:26;28.56;27.40;37.87;;
67306;Laerm;57661;51.436;5.978;2024-01-15T00:15:38;28.26;27.16;29.36;;
67306;Laerm;57661;51.436;5.978;2024-01-15T00:15:48;28.25;27.37;29.17;;
67306;Laerm;57661;51.436;5.978;2024-01-15T00:15:58;28.21;27.13;29.15;;
67306;Laerm;57661;51.436;5.978;2024-01-15T00:16:09;28.24;27.20;29.16;;
67306;Laerm;57661;51.436;5.978;2024-01-15T00:16:19;28.24;27.34;30.40;;
67306;Laerm;57661;51.436;5.978;2024-01-15T00:16:29;28.50;27.23;38.55;;
67306;Laerm;57661;51.436;5.978;2024-01-15T00:16:40;28.25;27.37;29.51;;
67306;Laerm;57661;51.436;5.978;2024-01-15T00:16:50;28.28;27.46;29.15;;
67306;Laerm;57661;51.436;5.978;2024-01-15T00:17:01;28.25;27.37;29.24;;
67306;Laerm;57661;51.436;5.978;2024-01-15T00:17:11;28.25;27.23;29.10;;
67306;Laerm;57661;51.436;5.978;2024-01-15T00:17:21;28.30;27.37;29.02;;
67306;Laerm;57661;51.436;5.978;2024-01-15T00:17:32;28.29;27.33;29.17;;
67306;Laerm;57661;51.436;5.978;2024-01-15T00:17:42;28.25;27.04;29.19;;
67306;Laerm;57661;51.436;5.978;2024-01-15T00:17:52;28.27;27.42;29.15;;
67306;Laerm;57661;51.436;5.978;2024-01-15T00:18:02;28.56;27.22;39.04;;
67306;Laerm;57661;51.436;5.978;2024-01-15T00:18:13;28.28;27.23;29.09;;
67306;Laerm;57661;51.436;5.978;2024-01-15T00:18:23;28.23;27.22;29.22;;
67306;Laerm;57661;51.436;5.978;2024-01-15T00:18:33;28.25;27.27;29.12;;
67306;Laerm;57661;51.436;5.978;2024-01-15T00:18:43;28.25;27.48;29.08;;
67306;Laerm;57661;51.436;5.978;2024-01-15T00:18:53;28.27;27.34;30.40;;
67306;Laerm;57661;51.436;5.978;2024-01-15T00:19:04;28.63;27.39;39.57;;
67306;Laerm;57661;51.436;5.978;2024-01-15T00:19:14;28.25;27.42;29.13;;
67306;Laerm;57661;51.436;5.978;2024-01-15T00:19:24;28.27;27.25;29.21;;
67306;Laerm;57661;51.436;5.978;2024-01-15T00:19:34;28.23;27.26;29.18;;
67306;Laerm;57661;51.436;5.978;2024-01-15T00:19:44;28.24;27.15;29.30;;
67306;Laerm;57661;51.436;5.978;2024-01-15T00:19:55;28.29;27.30;29.25;;
67306;Laerm;57661;51.436;5.978;2024-01-15T00:20:05;28.29;27.27;29.09;;
67306;Laerm;57661;51.436;5.978;2024-01-15T00:20:16;28.28;27.20;29.24;;
67306;Laerm;57661;51.436;5.978;2024-01-15T00:20:26;28.29;27.40;29.41;;
67306;Laerm;57661;51.436;5.978;2024-01-15T00:20:36;28.51;27.17;38.66;;
67306;Laerm;57661;51.436;5.978;2024-01-15T00:20:46;28.27;27.49;29.43;;
67306;Laerm;57661;51.436;5.978;2024-01-15T00:20:56;28.25;27.10;29.55;;
67306;Laerm;57661;51.436;5.978;2024-01-15T00:21:07;28.24;27.28;29.10;;
67306;Laerm;57661;51.436;5.978;2024-01-15T00:21:17;28.25;27.38;29.45;;
67306;Laerm;57661;51.436;5.978;2024-01-15T00:21:27;28.29;27.38;30.22;;
67306;Laerm;57661;51.436;5.978;2024-01-15T00:21:38;29.09;27.34;43.17;;
67306;Laerm;57661;51.436;5.978;2024-01-15T00:21:48;28.29;27.19;29.31;;
67306;Laerm;57661;51.436;5.978;2024-01-15T00:21:58;28.22;27.07;29.08;;
67306;Laerm;57661;51.436;5.978;2024-01-15T00:22:09;28.55;27.30;36.91;;
67306;Laerm;57661;51.436;5.978;2024-01-15T00:22:19;28.28;27.22;29.05;;
67306;Laerm;57661;51.436;5.978;2024-01-15T00:22:29;28.26;27.33;29.28;;
67306;Laerm;57661;51.436;5.978;2024-01-15T00:22:40;28.29;27.29;29.17;;
67306;Laerm;57661;51.436;5.978;2024-01-15T00:22:50;28.30;27.23;29.37;;
67306;Laerm;57661;51.436;5.978;2024-01-15T00:23:01;28.29;27.31;29.11;;
67306;Laerm;57661;51.436;5.978;2024-01-15T00:23:11;28.96;27.07;38.13;;
67306;Laerm;57661;51.436;5.978;2024-01-15T00:23:22;28.35;27.53;29.51;;
67306;Laerm;57661;51.436;5.978;2024-01-15T00:23:32;28.37;27.15;29.41;;
67306;Laerm;57661;51.436;5.978;2024-01-15T00:23:42;28.36;27.28;29.38;;
67306;Laerm;57661;51.436;5.978;2024-01-15T00:23:54;36.14;27.75;47.52;;
67306;Laerm;57661;51.436;5.978;2024-01-15T00:24:04;39.31;32.22;44.62;;
67306;Laerm;57661;51.436;5.978;2024-01-15T00:24:14;39.23;33.69;44.70;;
67306;Laerm;57661;51.436;5.978;2024-01-15T00:24:25;31.57;27.54;39.50;;
67306;Laerm;57661;51.436;5.978;2024-01-15T00:24:35;28.29;27.24;29.06;;
67306;Laerm;57661;51.436;5.978;2024-01-15T00:24:45;28.28;27.45;29.31;;
67306;Laerm;57661;51.436;5.978;2024-01-15T00:24:55;28.26;27.10;29.48;;
67306;Laerm;57661;51.436;5.978;2024-01-15T00:25:05;28.26;27.28;29.06;;
67306;Laerm;57661;51.436;5.978;2024-01-15T00:25:16;28.26;27.35;29.26;;
67306;Laerm;57661;51.436;5.978;2024-01-15T00:25:27;28.26;27.22;29.32;;
67306;Laerm;57661;51.436;5.978;2024-01-15T00:25:38;28.24;27.51;29.17;;
67306;Laerm;57661;51.436;5.978;2024-01-15T00:25:48;28.45;27.14;36.90;;
67306;Laerm;57661;51.436;5.978;2024-01-15T00:25:58;28.27;27.37;29.22;;
67306;Laerm;57661;51.436;5.978;2024-01-15T00:26:08;28.26;27.12;29.09;;
67306;Laerm;57661;51.436;5.978;2024-01-15T00:26:19;28.26;27.36;29.14;;
67306;Laerm;57661;51.436;5.978;2024-01-15T00:26:29;28.27;27.33;29.24;;
67306;Laerm;57661;51.436;5.978;2024-01-15T00:26:39;28.30;27.50;29.03;;
67306;Laerm;57661;51.436;5.978;2024-01-15T00:26:49;28.30;27.25;29.14;;
67306;Laerm;57661;51.436;5.978;2024-01-15T00:27:00;28.30;27.17;29.35;;
67306;Laerm;57661;51.436;5.978;2024-01-15T00:27:10;28.33;27.35;30.60;;
67306;Laerm;57661;51.436;5.978;2024-01-15T00:27:20;28.57;27.38;38.99;;
67306;Laerm;57661;51.436;5.978;2024-01-15T00:27:33;28.26;27.18;29.31;;
67306;Laerm;57661;51.436;5.978;2024-01-15T00:27:43;28.23;27.21;29.27;;
67306;Laerm;57661;51.436;5.978;2024-01-15T00:27:53;28.23;27.40;29.14;;
67306;Laerm;57661;51.436;5.978;2024-01-15T00:28:03;28.25;27.20;29.32;;
67306;Laerm;57661;51.436;5.978;2024-01-15T00:28:14;28.28;27.50;29.31;;
67306;Laerm;57661;51.436;5.978;2024-01-15T00:28:24;28.29;27.36;29.20;;
67306;Laerm;57661;51.436;5.978;2024-01-15T00:28:34;28.50;27.53;37.82;;
67306;Laerm;57661;51.436;5.978;2024-01-15T00:28:45;28.28;27.43;29.12;;
67306;Laerm;57661;51.436;5.978;2024-01-15T00:28:56;28.26;27.26;28.99;;
67306;Laerm;57661;51.436;5.978;2024-01-15T00:29:06;28.30;27.12;29.21;;
67306;Laerm;57661;51.436;5.978;2024-01-15T00:29:17;28.29;27.24;29.29;;
67306;Laerm;57661;51.436;5.978;2024-01-15T00:29:27;28.25;27.42;29.14;;
67306;Laerm;57661;51.436;5.978;2024-01-15T00:29:37;28.31;27.51;29.58;;
67306;Laerm;57661;51.436;5.978;2024-01-15T00:29:48;28.25;27.21;29.16;;
67306;Laerm;57661;51.436;5.978;2024-01-15T00:29:58;28.25;27.23;29.06;;
67306;Laerm;57661;51.436;5.978;2024-01-15T00:30:11;28.51;27.30;39.20;;
67306;Laerm;57661;51.436;5.978;2024-01-15T00:30:21;28.30;26.97;30.44;;
67306;Laerm;57661;51.436;5.978;2024-01-15T00:30:31;28.24;27.35;29.41;;
67306;Laerm;57661;51.436;5.978;2024-01-15T00:30:42;28.25;27.38;29.08;;
67306;Laerm;57661;51.436;5.978;2024-01-15T00:30:52;28.27;27.27;29.09;;
67306;Laerm;57661;51.436;5.978;2024-01-15T00:31:02;28.26;27.29;29.13;;
67306;Laerm;57661;51.436;5.978;2024-01-15T00:31:19;29.12;27.31;36.92;;
67306;Laerm;57661;51.436;5.978;2024-01-15T00:31:29;28.43;27.20;29.56;;
67306;Laerm;57661;51.436;5.978;2024-01-15T00:31:42;28.50;27.58;30.04;;
67306;Laerm;57661;51.436;5.978;2024-01-15T00:31:52;28.59;27.68;29.52;;
67306;Laerm;57661;51.436;5.978;2024-01-15T00:32:05;28.57;27.52;29.75;;
67306;Laerm;57661;51.436;5.978;2024-01-15T00:32:15;28.54;27.60;29.62;;
67306;Laerm;57661;51.436;5.978;2024-01-15T00:32:25;28.58;27.57;29.51;;
67306;Laerm;57661;51.436;5.978;2024-01-15T00:32:36;28.55;27.36;29.68;;
67306;Laerm;57661;51.436;5.978;2024-01-15T00:32:46;28.55;27.55;29.43;;
67306;Laerm;57661;51.436;5.978;2024-01-15T00:32:56;28.75;27.74;37.28;;
67306;Laerm;57661;51.436;5.978;2024-01-15T00:33:06;28.57;27.75;29.41;;
67306;Laerm;57661;51.436;5.978;2024-01-15T00:33:17;28.57;27.64;29.56;;
67306;Laerm;57661;51.436;5.978;2024-01-15T00:33:27;34.96;28.13;43.30;;
67306;Laerm;57661;51.436;5.978;2024-01-15T00:33:37;34.75;30.71;38.62;;
67306;Laerm;57661;51.436;5.978;2024-01-15T00:33:47;33.79;27.83;39.48;;
67306;Laerm;57661;51.436;5.978;2024-01-15T00:33:58;28.46;27.59;29.51;;
67306;Laerm;57661;51.436;5.978;2024-01-15T00:34:08;28.35;27.44;29.23;;
67306;Laerm;57661;51.436;5.978;2024-01-15T00:34:18;28.28;27.46;29.25;;
67306;Laerm;57661;51.436;5.978;2024-01-15T00:34:28;28.32;27.30;29.21;;
67306;Laerm;57661;51.436;5.978;2024-01-15T00:34:38;28.32;27.44;29.42;;
67306;Laerm;57661;51.436;5.978;2024-01-15T00:34:49;28.30;27.19;29.22;;
67306;Laerm;57661;51.436;5.978;2024-01-15T00:35:00;28.33;27.31;29.25;;
67306;Laerm;57661;51.436;5.978;2024-01-15T00:35:10;28.32;27.30;29.93;;
67306;Laerm;57661;51.436;5.978;2024-01-15T00:35:21;28.33;27.35;29.23;;
67306;Laerm;57661;51.436;5.978;2024-01-15T00:35:31;28.36;27.41;29.34;;
67306;Laerm;57661;51.436;5.978;2024-01-15T00:35:41;28.37;27.44;29.56;;
67306;Laerm;57661;51.436;5.978;2024-01-15T00:35:51;28.64;27.41;40.14;;
67306;Laerm;57661;51.436;5.978;2024-01-15T00:36:02;28.31;27.27;29.24;;
67306;Laerm;57661;51.436;5.978;2024-01-15T00:36:13;28.33;27.25;29.32;;
67306;Laerm;57661;51.436;5.978;2024-01-15T00:36:24;28.30;27.25;29.23;;
67306;Laerm;57661;51.436;5.978;2024-01-15T00:36:34;28.36;27.53;30.54;;
67306;Laerm;57661;51.436;5.978;2024-01-15T00:36:45;28.33;27.45;29.49;;
67306;Laerm;57661;51.436;5.978;2024-01-15T00:36:55;28.23;27.28;29.33;;
67306;Laerm;57661;51.436;5.978;2024-01-15T00:37:05;28.25;27.33;29.26;;
67306;Laerm;57661;51.436;5.978;2024-01-15T00:37:17;28.22;27.29;29.26;;
67306;Laerm;57661;51.436;5.978;2024-01-15T00:37:27;28.25;27.25;30.30;;
67306;Laerm;57661;51.436;5.978;2024-01-15T00:37:37;28.26;27.44;29.45;;
67306;Laerm;57661;51.436;5.978;2024-01-15T00:37:47;28.24;27.43;29.04;;
67306;Laerm;57661;51.436;5.978;2024-01-15T00:37:58;28.23;27.11;29.21;;
67306;Laerm;57661;51.436;5.978;2024-01-15T00:38:08;28.24;27.24;29.20;;
67306;Laerm;57661;51.436;5.978;2024-01-15T00:38:18;28.23;27.28;29.12;;
67306;Laerm;57661;51.436;5.978;2024-01-15T00:38:28;28.26;27.08;31.09;;
67306;Laerm;57661;51.436;5.978;2024-01-15T00:38:39;28.25;27.26;29.07;;
67306;Laerm;57661;51.436;5.978;2024-01-15T00:38:49;28.27;27.46;29.12;;
67306;Laerm;57661;51.436;5.978;2024-01-15T00:38:59;28.23;27.27;29.26;;
67306;Laerm;57661;51.436;5.978;2024-01-15T00:39:09;28.23;27.38;28.98;;
67306;Laerm;57661;51.436;5.978;2024-01-15T00:39:20;28.28;27.38;29.31;;
67306;Laerm;57661;51.436;5.978;2024-01-15T00:39:30;28.25;27.25;29.05;;
67306;Laerm;57661;51.436;5.978;2024-01-15T00:39:41;28.24;27.28;29.03;;
67306;Laerm;57661;51.436;5.978;2024-01-15T00:39:52;28.55;27.19;38.62;;
67306;Laerm;57661;51.436;5.978;2024-01-15T00:40:03;31.40;27.38;51.46;;
67306;Laerm;57661;51.436;5.978;2024-01-15T00:40:13;28.24;27.35;29.08;;
67306;Laerm;57661;51.436;5.978;2024-01-15T00:40:23;28.24;27.40;29.16;;
67306;Laerm;57661;51.436;5.978;2024-01-15T00:40:35;28.21;27.26;29.25;;
67306;Laerm;57661;51.436;5.978;2024-01-15T00:40:45;28.22;27.10;29.10;;
67306;Laerm;57661;51.436;5.978;2024-01-15T00:40:56;28.25;27.46;29.12;;
67306;Laerm;57661;51.436;5.978;2024-01-15T00:41:06;28.26;27.54;29.43;;
67306;Laerm;57661;51.436;5.978;2024-01-15T00:41:16;28.24;27.06;29.02;;
67306;Laerm;57661;51.436;5.978;2024-01-15T00:41:26;28.26;27.12;29.55;;
67306;Laerm;57661;51.436;5.978;2024-01-15T00:41:37;28.24;27.37;29.14;;
67306;Laerm;57661;51.436;5.978;2024-01-15T00:41:48;28.26;27.37;29.38;;
67306;Laerm;57661;51.436;5.978;2024-01-15T00:41:58;28.24;27.09;30.01;;
67306;Laerm;57661;51.436;5.978;2024-01-15T00:42:08;28.27;27.24;29.13;;
67306;Laerm;57661;51.436;5.978;2024-01-15T00:42:18;28.29;27.16;29.27;;
67306;Laerm;57661;51.436;5.978;2024-01-15T00:42:28;28.23;27.28;29.20;;
67306;Laerm;57661;51.436;5.978;2024-01-15T00:42:39;28.29;27.39;29.22;;
67306;Laerm;57661;51.436;5.978;2024-01-15T00:42:49;28.23;27.32;29.13;;
67306;Laerm;57661;51.436;5.978;2024-01-15T00:42:59;28.28;27.41;29.16;;
67306;Laerm;57661;51.436;5.978;2024-01-15T00:43:09;28.23;27.44;29.22;;
67306;Laerm;57661;51.436;5.978;2024-01-15T00:43:19;28.26;27.38;29.85;;
67306;Laerm;57661;51.436;5.978;2024-01-15T00:43:30;28.22;27.38;29.02;;
67306;Laerm;57661;51.436;5.978;2024-01-15T00:43:40;28.27;27.17;29.17;;
67306;Laerm;57661;51.436;5.978;2024-01-15T00:43:50;28.24;27.47;29.18;;
67306;Laerm;57661;51.436;5.978;2024-01-15T00:44:00;28.76;27.42;40.88;;
67306;Laerm;57661;51.436;5.978;2024-01-15T00:44:11;28.25;27.41;29.19;;
67306;Laerm;57661;51.436;5.978;2024-01-15T00:44:21;28.28;27.02;29.24;;
67306;Laerm;57661;51.436;5.978;2024-01-15T00:44:31;28.27;27.28;29.02;;
67306;Laerm;57661;51.436;5.978;2024-01-15T00:44:42;28.33;27.26;34.95;;
67306;Laerm;57661;51.436;5.978;2024-01-15T00:44:52;28.23;27.44;29.07;;
67306;Laerm;57661;51.436;5.978;2024-01-15T00:45:04;28.29;27.36;29.05;;
67306;Laerm;57661;51.436;5.978;2024-01-15T00:45:15;28.26;27.36;29.30;;
67306;Laerm;57661;51.436;5.978;2024-01-15T00:45:25;28.27;27.32;29.18;;
67306;Laerm;57661;51.436;5.978;2024-01-15T00:45:35;28.23;27.06;29.24;;
67306;Laerm;57661;51.436;5.978;2024-01-15T00:45:45;28.28;27.46;29.29;;
67306;Laerm;57661;51.436;5.978;2024-01-15T00:45:56;28.28;27.16;30.05;;
67306;Laerm;57661;51.436;5.978;2024-01-15T00:46:06;28.27;27.14;29.44;;
67306;Laerm;57661;51.436;5.978;2024-01-15T00:46:16;28.25;27.29;29.09;;
67306;Laerm;57661;51.436;5.978;2024-01-15T00:46:27;28.24;27.23;29.32;;
67306;Laerm;57661;51.436;5.978;2024-01-15T00:46:43;28.48;27.02;38.37;;
67306;Laerm;57661;51.436;5.978;2024-01-15T00:46:54;28.24;27.09;29.11;;
67306;Laerm;57661;51.436;5.978;2024-01-15T00:47:04;28.29;27.07;29.01;;
67306;Laerm;57661;51.436;5.978;2024-01-15T00:47:15;28.23;27.30;29.55;;
67306;Laerm;57661;51.436;5.978;2024-01-15T00:47:25;28.26;27.28;29.24;;
67306;Laerm;57661;51.436;5.978;2024-01-15T00:47:35;28.22;27.25;28.93;;
67306;Laerm;57661;51.436;5.978;2024-01-15T00:47:46;28.24;27.34;29.99;;
67306;Laerm;57661;51.436;5.978;2024-01-15T00:47:56;28.25;27.21;29.14;;
67306;Laerm;57661;51.436;5.978;2024-01-15T00:48:06;28.24;27.33;28.98;;
67306;Laerm;57661;51.436;5.978;2024-01-15T00:48:16;28.25;27.25;29.01;;
67306;Laerm;57661;51.436;5.978;2024-01-15T00:48:27;28.21;27.16;29.13;;
67306;Laerm;57661;51.436;5.978;2024-01-15T00:48:37;28.28;27.37;29.18;;
67306;Laerm;57661;51.436;5.978;2024-01-15T00:48:47;28.26;27.27;29.12;;
67306;Laerm;57661;51.436;5.978;2024-01-15T00:48:57;28.22;27.33;29.20;;
67306;Laerm;57661;51.436;5.978;2024-01-15T00:49:07;28.22;27.19;29.50;;
67306;Laerm;57661;51.436;5.978;2024-01-15T00:49:18;28.25;27.17;29.13;;
67306;Laerm;57661;51.436;5.978;2024-01-15T00:49:28;28.27;27.34;29.28;;
67306;Laerm;57661;51.436;5.978;2024-01-15T00:49:38;28.25;27.48;29.51;;
67306;Laerm;57661;51.436;5.978;2024-01-15T00:49:48;28.23;27.26;29.38;;
67306;Laerm;57661;51.436;5.978;2024-01-15T00:49:58;28.24;27.31;29.09;;
67306;Laerm;57661;51.436;5.978;2024-01-15T00:50:09;28.23;27.36;29.18;;
67306;Laerm;57661;51.436;5.978;2024-01-15T00:50:19;28.27;27.14;29.31;;
67306;Laerm;57661;51.436;5.978;2024-01-15T00:50:29;28.23;26.99;29.06;;
67306;Laerm;57661;51.436;5.978;2024-01-15T00:50:39;28.26;27.01;29.13;;
67306;Laerm;57661;51.436;5.978;2024-01-15T00:50:50;28.44;27.10;38.34;;
67306;Laerm;57661;51.436;5.978;2024-01-15T00:51:06;28.24;27.20;29.12;;
67306;Laerm;57661;51.436;5.978;2024-01-15T00:51:16;28.29;27.04;34.55;;
67306;Laerm;57661;51.436;5.978;2024-01-15T00:51:26;28.20;27.33;29.14;;
67306;Laerm;57661;51.436;5.978;2024-01-15T00:51:37;28.24;27.31;29.19;;
67306;Laerm;57661;51.436;5.978;2024-01-15T00:51:47;28.24;27.14;29.26;;
67306;Laerm;57661;51.436;5.978;2024-01-15T00:51:57;28.24;27.34;29.59;;
67306;Laerm;57661;51.436;5.978;2024-01-15T00:52:07;28.44;27.23;37.55;;
67306;Laerm;57661;51.436;5.978;2024-01-15T00:52:17;28.26;27.34;29.15;;
67306;Laerm;57661;51.436;5.978;2024-01-15T00:52:28;28.21;26.86;29.11;;
67306;Laerm;57661;51.436;5.978;2024-01-15T00:52:38;28.24;27.20;29.11;;
67306;Laerm;57661;51.436;5.978;2024-01-15T00:52:48;28.25;27.47;30.04;;
67306;Laerm;57661;51.436;5.978;2024-01-15T00:52:58;28.48;27.48;37.22;;
67306;Laerm;57661;51.436;5.978;2024-01-15T00:53:08;28.26;27.35;29.09;;
67306;Laerm;57661;51.436;5.978;2024-01-15T00:53:19;28.28;27.27;29.26;;
67306;Laerm;57661;51.436;5.978;2024-01-15T00:53:32;35.08;27.35;43.97;;
67306;Laerm;57661;51.436;5.978;2024-01-15T00:53:43;36.21;32.10;41.48;;
67306;Laerm;57661;51.436;5.978;2024-01-15T00:53:53;37.83;32.11;45.57;;
67306;Laerm;57661;51.436;5.978;2024-01-15T00:54:03;35.25;30.73;41.51;;
67306;Laerm;57661;51.436;5.978;2024-01-15T00:54:13;34.05;30.20;38.82;;
67306;Laerm;57661;51.436;5.978;2024-01-15T00:54:23;30.83;27.61;36.41;;
67306;Laerm;57661;51.436;5.978;2024-01-15T00:54:34;28.32;27.24;29.95;;
67306;Laerm;57661;51.436;5.978;2024-01-15T00:54:44;28.28;27.17;32.37;;
67306;Laerm;57661;51.436;5.978;2024-01-15T00:54:54;28.26;27.20;29.21;;
67306;Laerm;57661;51.436;5.978;2024-01-15T00:55:04;28.23;27.51;29.37;;
67306;Laerm;57661;51.436;5.978;2024-01-15T00:55:15;28.26;27.32;29.17;;
67306;Laerm;57661;51.436;5.978;2024-01-15T00:55:25;28.21;27.10;29.23;;
67306;Laerm;57661;51.436;5.978;2024-01-15T00:55:35;28.26;27.04;29.24;;
67306;Laerm;57661;51.436;5.978;2024-01-15T00:55:47;28.22;27.27;29.31;;
67306;Laerm;57661;51.436;5.978;2024-01-15T00:55:58;28.25;27.18;29.13;;
67306;Laerm;57661;51.436;5.978;2024-01-15T00:56:08;28.23;27.11;29.17;;
67306;Laerm;57661;51.436;5.978;2024-01-15T00:56:18;28.25;27.31;29.01;;
67306;Laerm;57661;51.436;5.978;2024-01-15T00:56:28;28.68;27.41;39.34;;
67306;Laerm;57661;51.436;5.978;2024-01-15T00:56:38;28.41;27.55;29.91;;
67306;Laerm;57661;51.436;5.978;2024-01-15T00:56:49;28.28;27.16;29.28;;
67306;Laerm;57661;51.436;5.978;2024-01-15T00:56:59;28.26;27.09;29.59;;
67306;Laerm;57661;51.436;5.978;2024-01-15T00:57:09;28.27;27.37;29.14;;
67306;Laerm;57661;51.436;5.978;2024-01-15T00:57:19;28.27;27.29;29.46;;
67306;Laerm;57661;51.436;5.978;2024-01-15T00:57:29;28.27;27.46;29.15;;
67306;Laerm;57661;51.436;5.978;2024-01-15T00:57:40;28.23;27.22;29.18;;
67306;Laerm;57661;51.436;5.978;2024-01-15T00:57:50;28.26;27.38;29.13;;
67306;Laerm;57661;51.436;5.978;2024-01-15T00:58:00;28.24;27.38;29.32;;
67306;Laerm;57661;51.436;5.978;2024-01-15T00:58:10;28.24;27.33;29.50;;
67306;Laerm;57661;51.436;5.978;2024-01-15T00:58:20;28.25;27.38;30.17;;
67306;Laerm;57661;51.436;5.978;2024-01-15T00:58:31;28.22;27.14;29.17;;